Time;durP1;ratioP1;P1;durP2;ratioP2;P2;SDS_P1;SDS_P2;PMS_P1;PMS_P2;Temp;Humidity;BMP_temperature;BMP_pressure;BME280_temperature;BME280_humidity;BME280_pressure;Samples;Min_cycle;Max_cycle;Signal;HPM_P1;HPM_P2
2021/11/15 00:00:55;;;;;;;50.95;19.75;;;;;;;;;;5077366;28;20114;-84
2021/11/15 00:03:23;;;;;;;57.13;21.05;;;;;;;;;;5077490;28;20116;-82
2021/11/15 00:05:50;;;;;;;53.47;20.55;;;;;;;;;;5077040;28;20049;-83
2021/11/15 00:08:17;;;;;;;51.80;20.25;;;;;;;;;;5075731;28;20052;-84
2021/11/15 00:10:46;;;;;;;58.22;21.17;;;;;;;;;;5076037;28;20060;-83
2021/11/15 00:13:13;;;;;;;55.53;20.10;;;;;;;;;;5081609;28;20064;-84
2021/11/15 00:15:40;;;;;;;53.42;21.30;;;;;;;;;;5075631;28;20049;-83
2021/11/15 00:18:08;;;;;;;53.38;22.02;;;;;;;;;;5076351;28;20495;-84
2021/11/15 00:20:36;;;;;;;54.95;20.80;;;;;;;;;;5089466;28;20506;-84
2021/11/15 00:23:03;;;;;;;56.92;20.63;;;;;;;;;;5093434;28;20045;-82
2021/11/15 00:25:31;;;;;;;54.50;21.23;;;;;;;;;;5082359;28;20047;-82
2021/11/15 00:27:59;;;;;;;51.80;18.75;;;;;;;;;;5080787;28;20064;-84
2021/11/15 00:30:27;;;;;;;62.03;21.27;;;;;;;;;;5080221;28;20052;-83
2021/11/15 00:32:54;;;;;;;54.72;21.58;;;;;;;;;;5078756;28;20058;-83
2021/11/15 00:35:21;;;;;;;58.78;21.65;;;;;;;;;;5079389;28;20055;-83
2021/11/15 00:37:48;;;;;;;60.30;24.75;;;;;;;;;;5078989;28;20068;-84
2021/11/15 00:40:18;;;;;;;61.92;22.88;;;;;;;;;;5078243;28;20056;-84
2021/11/15 00:42:45;;;;;;;64.10;22.52;;;;;;;;;;5077862;28;20052;-84
2021/11/15 00:45:16;;;;;;;57.55;21.85;;;;;;;;;;5074397;28;20053;-83
2021/11/15 00:47:44;;;;;;;60.58;22.27;;;;;;;;;;5074642;28;20052;-82
2021/11/15 00:50:14;;;;;;;59.10;23.48;;;;;;;;;;5073940;28;20045;-83
2021/11/15 00:52:44;;;;;;;61.73;22.70;;;;;;;;;;5074353;28;20048;-84
2021/11/15 00:55:11;;;;;;;63.65;22.20;;;;;;;;;;5074150;28;20055;-83
2021/11/15 00:57:39;;;;;;;57.50;21.83;;;;;;;;;;5074950;28;20072;-84
2021/11/15 01:00:14;;;;;;;58.97;22.35;;;;;;;;;;5074518;28;20055;-83
2021/11/15 01:02:43;;;;;;;56.85;21.58;;;;;;;;;;5074738;28;20048;-83
2021/11/15 01:05:10;;;;;;;66.05;24.10;;;;;;;;;;5074558;28;20048;-83
2021/11/15 01:07:37;;;;;;;60.33;22.42;;;;;;;;;;5074055;28;20063;-85
2021/11/15 01:10:04;;;;;;;61.53;23.40;;;;;;;;;;5074380;28;20048;-82
2021/11/15 01:12:31;;;;;;;55.08;20.63;;;;;;;;;;5074826;28;20045;-83
2021/11/15 01:14:58;;;;;;;60.20;22.20;;;;;;;;;;5077224;28;20108;-83
2021/11/15 01:17:27;;;;;;;51.72;19.88;;;;;;;;;;5080206;28;20049;-84
2021/11/15 01:19:56;;;;;;;55.47;20.77;;;;;;;;;;5078469;28;20064;-84
2021/11/15 01:22:23;;;;;;;55.10;20.45;;;;;;;;;;5079696;28;20398;-84
2021/11/15 01:24:50;;;;;;;56.47;21.40;;;;;;;;;;5080024;28;20155;-83
2021/11/15 01:27:17;;;;;;;53.95;20.77;;;;;;;;;;5078481;28;20491;-84
2021/11/15 01:29:45;;;;;;;53.13;20.65;;;;;;;;;;5080175;28;20049;-83
2021/11/15 01:32:12;;;;;;;54.08;21.45;;;;;;;;;;5081001;28;20075;-82
2021/11/15 01:34:39;;;;;;;52.92;19.50;;;;;;;;;;5083099;28;20048;-81
2021/11/15 01:37:07;;;;;;;54.05;19.13;;;;;;;;;;5083709;28;20480;-84
2021/11/15 01:39:34;;;;;;;55.60;20.08;;;;;;;;;;5078106;28;20055;-84
2021/11/15 01:42:03;;;;;;;51.08;17.95;;;;;;;;;;5082233;28;20076;-83
2021/11/15 01:44:33;;;;;;;54.78;20.50;;;;;;;;;;5084417;28;20123;-82
2021/11/15 01:47:01;;;;;;;54.03;20.77;;;;;;;;;;5079848;28;20056;-83
2021/11/15 01:49:28;;;;;;;56.55;20.77;;;;;;;;;;5075938;28;20442;-82
2021/11/15 01:51:55;;;;;;;49.70;18.58;;;;;;;;;;5076048;28;20045;-84
2021/11/15 01:54:24;;;;;;;50.35;19.85;;;;;;;;;;5075396;28;20434;-83
2021/11/15 01:56:51;;;;;;;48.35;19.65;;;;;;;;;;5075212;28;20052;-84
2021/11/15 01:59:22;;;;;;;53.22;19.85;;;;;;;;;;5075946;28;20067;-83
2021/11/15 02:01:49;;;;;;;47.42;19.15;;;;;;;;;;5076097;28;20041;-84
2021/11/15 02:04:16;;;;;;;49.78;18.17;;;;;;;;;;5075613;28;20044;-84
2021/11/15 02:06:43;;;;;;;58.15;20.98;;;;;;;;;;5075261;28;20396;-85
2021/11/15 02:09:10;;;;;;;53.33;20.98;;;;;;;;;;5075781;28;20055;-83
2021/11/15 02:11:38;;;;;;;53.65;19.33;;;;;;;;;;5075965;28;20044;-85
2021/11/15 02:14:06;;;;;;;52.22;18.02;;;;;;;;;;5075360;28;20056;-83
2021/11/15 02:16:35;;;;;;;48.38;19.17;;;;;;;;;;5076933;28;20079;-83
2021/11/15 02:19:02;;;;;;;54.90;21.33;;;;;;;;;;5075754;28;20060;-82
2021/11/15 02:21:32;;;;;;;50.15;19.83;;;;;;;;;;5075521;28;20055;-81
2021/11/15 02:24:00;;;;;;;51.30;20.30;;;;;;;;;;5075639;28;20251;-83
2021/11/15 02:26:28;;;;;;;51.03;19.38;;;;;;;;;;5074893;28;20132;-81
2021/11/15 02:28:56;;;;;;;56.05;19.58;;;;;;;;;;5075634;28;20686;-81
2021/11/15 02:31:27;;;;;;;51.95;20.23;;;;;;;;;;5074473;28;20060;-83
2021/11/15 02:33:57;;;;;;;56.03;20.50;;;;;;;;;;5075229;28;20059;-82
2021/11/15 02:36:27;;;;;;;58.33;20.95;;;;;;;;;;5074923;28;20058;-83
2021/11/15 02:38:55;;;;;;;54.13;20.17;;;;;;;;;;5034183;28;1169870;-82
2021/11/15 02:41:24;;;;;;;49.25;18.60;;;;;;;;;;5076893;28;20051;-82
2021/11/15 02:43:55;;;;;;;50.45;19.45;;;;;;;;;;5081208;28;20049;-82
2021/11/15 02:46:22;;;;;;;50.95;19.50;;;;;;;;;;5094687;28;20040;-81
2021/11/15 02:48:49;;;;;;;56.72;21.05;;;;;;;;;;5091713;28;20044;-83
2021/11/15 02:51:16;;;;;;;51.05;19.52;;;;;;;;;;5078864;28;20483;-83
2021/11/15 02:53:43;;;;;;;48.35;19.23;;;;;;;;;;5088745;28;20032;-85
2021/11/15 02:56:12;;;;;;;48.40;18.73;;;;;;;;;;5098176;28;20044;-86
2021/11/15 02:58:39;;;;;;;54.08;20.52;;;;;;;;;;5086776;28;20044;-82
2021/11/15 03:01:11;;;;;;;51.95;19.55;;;;;;;;;;5078876;28;20055;-84
2021/11/15 03:03:39;;;;;;;52.33;19.33;;;;;;;;;;5076488;28;20059;-82
2021/11/15 03:06:07;;;;;;;46.78;18.10;;;;;;;;;;5076078;28;20064;-82
2021/11/15 03:08:36;;;;;;;43.58;17.55;;;;;;;;;;5075702;28;20143;-82
2021/11/15 03:11:05;;;;;;;39.55;15.23;;;;;;;;;;5075571;28;20176;-83
2021/11/15 03:13:38;;;;;;;43.97;17.15;;;;;;;;;;5075400;28;20174;-83
2021/11/15 03:16:06;;;;;;;40.92;16.65;;;;;;;;;;5075470;28;20067;-84
2021/11/15 03:18:35;;;;;;;39.85;16.35;;;;;;;;;;5075638;28;20051;-83
2021/11/15 03:21:05;;;;;;;42.05;15.30;;;;;;;;;;5075659;28;20044;-83
2021/11/15 03:23:33;;;;;;;40.83;15.65;;;;;;;;;;5077111;28;20055;-83
2021/11/15 03:26:04;;;;;;;42.30;16.02;;;;;;;;;;5090180;28;20043;-82
2021/11/15 03:28:48;;;;;;;45.80;17.02;;;;;;;;;;5092898;28;20048;-83
2021/11/15 03:31:20;;;;;;;45.38;17.33;;;;;;;;;;5092814;28;20116;-82
2021/11/15 03:33:48;;;;;;;46.08;17.17;;;;;;;;;;5089484;28;20119;-82
2021/11/15 03:36:16;;;;;;;46.22;18.35;;;;;;;;;;5080977;28;20052;-83
2021/11/15 03:38:44;;;;;;;50.20;17.60;;;;;;;;;;5082489;28;20052;-83
2021/11/15 03:41:12;;;;;;;46.65;16.65;;;;;;;;;;5084240;28;20076;-83
2021/11/15 03:43:40;;;;;;;44.28;15.77;;;;;;;;;;5081217;28;20480;-84
2021/11/15 03:46:08;;;;;;;50.08;17.02;;;;;;;;;;5082989;28;20044;-83
2021/11/15 03:48:37;;;;;;;48.80;17.80;;;;;;;;;;5093624;28;20044;-84
2021/11/15 03:51:06;;;;;;;46.42;17.75;;;;;;;;;;5094937;28;20051;-83
2021/11/15 03:53:36;;;;;;;50.28;18.80;;;;;;;;;;5091471;28;20100;-83
2021/11/15 03:56:07;;;;;;;45.92;18.40;;;;;;;;;;5081919;28;20048;-83
2021/11/15 03:58:35;;;;;;;48.15;16.80;;;;;;;;;;5081786;28;20052;-83
2021/11/15 04:01:03;;;;;;;44.88;16.70;;;;;;;;;;5082094;28;20055;-84
2021/11/15 04:03:32;;;;;;;44.92;17.08;;;;;;;;;;5081703;28;20049;-83
2021/11/15 04:06:04;;;;;;;52.60;17.27;;;;;;;;;;5080245;28;20070;-83
2021/11/15 04:08:33;;;;;;;50.15;17.77;;;;;;;;;;5081220;28;20057;-83
2021/11/15 04:11:01;;;;;;;41.05;16.80;;;;;;;;;;5081043;28;20063;-83
2021/11/15 04:13:32;;;;;;;57.08;20.42;;;;;;;;;;5080495;28;20045;-84
2021/11/15 04:16:02;;;;;;;43.20;16.88;;;;;;;;;;5080946;28;20135;-84
2021/11/15 04:18:35;;;;;;;49.00;17.77;;;;;;;;;;5080115;28;20094;-83
2021/11/15 04:21:06;;;;;;;58.17;20.52;;;;;;;;;;5079674;28;20040;-83
2021/11/15 04:23:34;;;;;;;46.83;17.15;;;;;;;;;;5079469;28;20147;-82
2021/11/15 04:26:03;;;;;;;42.97;17.20;;;;;;;;;;5078783;28;20063;-83
2021/11/15 04:28:31;;;;;;;50.15;17.45;;;;;;;;;;5079628;28;20055;-82
2021/11/15 04:30:58;;;;;;;51.85;18.85;;;;;;;;;;5078919;28;20048;-83
2021/11/15 04:33:25;;;;;;;51.83;19.55;;;;;;;;;;5078980;28;20052;-83
2021/11/15 04:35:53;;;;;;;44.95;15.88;;;;;;;;;;5078453;28;20049;-83
2021/11/15 04:38:24;;;;;;;44.40;17.10;;;;;;;;;;5077934;28;20044;-83
2021/11/15 04:40:51;;;;;;;43.67;17.02;;;;;;;;;;5077503;28;20049;-82
2021/11/15 04:43:22;;;;;;;45.38;18.25;;;;;;;;;;5078574;28;20056;-83
2021/11/15 04:45:49;;;;;;;;;;;;;;;;;;5079548;28;20062;-83
2021/11/15 04:48:16;;;;;;;46.50;14.70;;;;;;;;;;5079908;28;19920;-83
2021/11/15 04:50:43;;;;;;;51.60;18.92;;;;;;;;;;5080962;28;20071;-83
2021/11/15 04:53:10;;;;;;;42.10;15.90;;;;;;;;;;5080773;28;20067;-83
2021/11/15 04:55:39;;;;;;;46.08;15.05;;;;;;;;;;5097648;28;20055;-83
2021/11/15 04:58:07;;;;;;;48.13;16.38;;;;;;;;;;5083915;28;20411;-82
2021/11/15 05:00:36;;;;;;;46.13;17.20;;;;;;;;;;5078903;28;20051;-82
2021/11/15 05:03:03;;;;;;;47.33;17.30;;;;;;;;;;5079546;28;20494;-82
2021/11/15 05:05:32;;;;;;;39.88;15.60;;;;;;;;;;5079463;28;20060;-82
2021/11/15 05:08:01;;;;;;;43.58;16.38;;;;;;;;;;5083395;28;20048;-83
2021/11/15 05:10:31;;;;;;;41.28;16.35;;;;;;;;;;5085765;28;20040;-83
2021/11/15 05:13:01;;;;;;;39.60;14.45;;;;;;;;;;5089396;28;20079;-83
2021/11/15 05:15:28;;;;;;;43.08;15.95;;;;;;;;;;5090851;28;20131;-83
2021/11/15 05:17:56;;;;;;;39.15;15.10;;;;;;;;;;5086328;28;20048;-83
2021/11/15 05:20:26;;;;;;;44.00;15.02;;;;;;;;;;5080873;28;20441;-83
2021/11/15 05:22:53;;;;;;;37.03;14.90;;;;;;;;;;5080054;28;20053;-84
2021/11/15 05:25:21;;;;;;;37.47;13.95;;;;;;;;;;5081970;28;20044;-84
2021/11/15 05:27:49;;;;;;;48.30;16.65;;;;;;;;;;5099881;28;20059;-86
2021/11/15 05:30:20;;;;;;;43.58;15.30;;;;;;;;;;5094440;28;20052;-83
2021/11/15 05:32:47;;;;;;;;;;;;;;;;;;5081802;28;20418;-83
2021/11/15 05:35:14;;;;;;;39.25;13.60;;;;;;;;;;5079369;28;20414;-83
2021/11/15 05:37:41;;;;;;;36.97;14.10;;;;;;;;;;5078689;28;20049;-83
2021/11/15 05:40:09;;;;;;;35.28;12.70;;;;;;;;;;5079212;28;20078;-85
2021/11/15 05:42:36;;;;;;;34.97;12.73;;;;;;;;;;5080335;28;20053;-82
2021/11/15 05:45:05;;;;;;;32.10;13.32;;;;;;;;;;5091063;28;20036;-82
2021/11/15 05:47:34;;;;;;;37.30;13.52;;;;;;;;;;5094359;28;20056;-84
2021/11/15 05:50:00;;;;;;;37.97;12.85;;;;;;;;;;5084498;28;20041;-84
2021/11/15 05:52:27;;;;;;;35.95;14.23;;;;;;;;;;5080857;28;20049;-83
2021/11/15 05:54:54;;;;;;;38.13;14.15;;;;;;;;;;5079723;28;20304;-83
2021/11/15 05:57:22;;;;;;;36.22;14.63;;;;;;;;;;5078832;28;20055;-83
2021/11/15 05:59:49;;;;;;;38.33;13.48;;;;;;;;;;5078633;28;20522;-83
2021/11/15 06:02:16;;;;;;;35.08;13.10;;;;;;;;;;5079182;28;20044;-84
2021/11/15 06:04:44;;;;;;;40.60;14.00;;;;;;;;;;5079030;28;20403;-83
2021/11/15 06:07:13;;;;;;;34.55;12.65;;;;;;;;;;5078808;28;20506;-82
2021/11/15 06:09:41;;;;;;;40.28;15.00;;;;;;;;;;5079555;28;20337;-81
2021/11/15 06:12:11;;;;;;;42.33;15.40;;;;;;;;;;5085722;28;20052;-83
2021/11/15 06:14:40;;;;;;;;;;;;;;;;;;5080027;28;20040;-83
2021/11/15 06:17:06;;;;;;;52.28;18.83;;;;;;;;;;5077856;28;19932;-82
2021/11/15 06:19:33;;;;;;;40.10;16.05;;;;;;;;;;5077802;28;20049;-84
2021/11/15 06:22:02;;;;;;;38.75;14.85;;;;;;;;;;5077983;28;20048;-83
2021/11/15 06:24:30;;;;;;;41.80;15.93;;;;;;;;;;5078390;28;20102;-83
2021/11/15 06:26:57;;;;;;;42.55;15.88;;;;;;;;;;5077118;28;20048;-82
2021/11/15 06:29:24;;;;;;;40.78;16.13;;;;;;;;;;5077961;28;20055;-83
2021/11/15 06:31:51;;;;;;;36.78;15.90;;;;;;;;;;5077407;28;20135;-82
2021/11/15 06:34:18;;;;;;;48.15;17.55;;;;;;;;;;5077635;28;20139;-82
2021/11/15 06:36:45;;;;;;;48.30;17.25;;;;;;;;;;5076623;28;20053;-82
2021/11/15 06:39:13;;;;;;;47.92;17.85;;;;;;;;;;5077371;28;20055;-83
2021/11/15 06:41:42;;;;;;;48.25;16.40;;;;;;;;;;5076732;28;20048;-83
2021/11/15 06:44:09;;;;;;;49.42;17.67;;;;;;;;;;5078276;28;20054;-83
2021/11/15 06:46:36;;;;;;;48.92;19.42;;;;;;;;;;5077069;28;20052;-81
2021/11/15 06:49:03;;;;;;;45.65;18.05;;;;;;;;;;5077040;28;20041;-81
2021/11/15 06:51:30;;;;;;;52.42;18.60;;;;;;;;;;5077456;28;20048;-81
2021/11/15 06:53:57;;;;;;;50.53;18.88;;;;;;;;;;5077011;28;20040;-82
2021/11/15 06:56:26;;;;;;;51.63;18.58;;;;;;;;;;5076704;28;20055;-84
2021/11/15 06:58:53;;;;;;;50.60;17.45;;;;;;;;;;5086368;28;20044;-84
2021/11/15 07:01:19;;;;;;;52.95;18.92;;;;;;;;;;5086274;28;20052;-82
2021/11/15 07:03:47;;;;;;;48.85;19.80;;;;;;;;;;5087230;28;20052;-83
2021/11/15 07:06:14;;;;;;;45.67;17.25;;;;;;;;;;5086192;28;20055;-82
2021/11/15 07:08:40;;;;;;;52.97;18.25;;;;;;;;;;5078183;28;20478;-85
2021/11/15 07:11:07;;;;;;;52.60;18.33;;;;;;;;;;5077322;28;20506;-83
2021/11/15 07:13:36;;;;;;;47.90;18.92;;;;;;;;;;5077673;28;20131;-83
2021/11/15 07:16:03;;;;;;;50.40;18.08;;;;;;;;;;5079706;28;20052;-85
2021/11/15 07:18:32;;;;;;;54.33;18.80;;;;;;;;;;5077223;28;20047;-83
2021/11/15 07:20:59;;;;;;;52.75;17.88;;;;;;;;;;5076801;28;20105;-84
2021/11/15 07:23:26;;;;;;;60.13;19.50;;;;;;;;;;5076451;28;20044;-81
2021/11/15 07:25:54;;;;;;;54.75;17.65;;;;;;;;;;5076458;28;20048;-85
2021/11/15 07:28:22;;;;;;;57.53;20.33;;;;;;;;;;5076658;28;20071;-84
2021/11/15 07:30:54;;;;;;;64.75;24.63;;;;;;;;;;5078363;28;20056;-82
2021/11/15 07:33:21;;;;;;;52.75;18.13;;;;;;;;;;5076735;28;20044;-83
2021/11/15 07:35:49;;;;;;;51.45;18.88;;;;;;;;;;5079363;28;20616;-82
2021/11/15 07:38:16;;;;;;;48.35;19.08;;;;;;;;;;5077379;28;20135;-83
2021/11/15 07:40:43;;;;;;;50.92;19.40;;;;;;;;;;5076416;28;20051;-84
2021/11/15 07:43:11;;;;;;;55.22;20.42;;;;;;;;;;5077518;28;20040;-83
2021/11/15 07:45:38;;;;;;;50.50;17.25;;;;;;;;;;5076605;28;20044;-84
2021/11/15 07:48:10;;;;;;;47.25;17.90;;;;;;;;;;5076150;28;20419;-82
2021/11/15 07:50:37;;;;;;;69.10;26.45;;;;;;;;;;5079919;28;20044;-81
2021/11/15 07:53:05;;;;;;;62.60;24.73;;;;;;;;;;5078219;28;20044;-81
2021/11/15 07:55:32;;;;;;;57.15;21.05;;;;;;;;;;5077795;28;20045;-84
2021/11/15 07:58:01;;;;;;;58.00;20.35;;;;;;;;;;5078899;28;20052;-84
2021/11/15 08:00:29;;;;;;;59.47;19.80;;;;;;;;;;5095856;28;20051;-85
2021/11/15 08:02:56;;;;;;;52.25;19.42;;;;;;;;;;5095367;28;20117;-83
2021/11/15 08:05:25;;;;;;;46.13;19.23;;;;;;;;;;5082739;28;20045;-84
2021/11/15 08:07:52;;;;;;;57.97;20.98;;;;;;;;;;5080831;28;20041;-84
2021/11/15 08:10:20;;;;;;;56.47;18.05;;;;;;;;;;5079736;28;20407;-84
2021/11/15 08:12:53;;;;;;;56.80;20.77;;;;;;;;;;5082486;28;20064;-83
2021/11/15 08:15:22;;;;;;;48.17;18.75;;;;;;;;;;5079978;28;20049;-84
2021/11/15 08:17:51;;;;;;;56.88;20.58;;;;;;;;;;5078377;28;20051;-84
2021/11/15 08:20:32;;;;;;;60.55;20.73;;;;;;;;;;5079215;28;20060;-86
2021/11/15 08:23:02;;;;;;;54.63;19.15;;;;;;;;;;5079126;28;20095;-86
2021/11/15 08:26:31;;;;;;;58.05;19.92;;;;;;;;;;5094630;28;20084;-83
2021/11/15 08:29:02;;;;;;;51.08;19.27;;;;;;;;;;5091815;28;20051;-85
2021/11/15 08:31:31;;;;;;;50.58;17.38;;;;;;;;;;5089160;28;20048;-85
2021/11/15 08:33:58;;;;;;;45.03;16.20;;;;;;;;;;5085911;28;20047;-85
2021/11/15 08:36:28;;;;;;;47.35;21.48;;;;;;;;;;5084432;28;20049;-82
2021/11/15 08:38:59;;;;;;;51.55;17.77;;;;;;;;;;5090869;28;20056;-85
2021/11/15 08:41:31;;;;;;;43.58;15.88;;;;;;;;;;5087217;28;20040;-85
2021/11/15 08:43:59;;;;;;;45.08;15.95;;;;;;;;;;5089559;28;20098;-84
2021/11/15 08:46:28;;;;;;;44.53;18.25;;;;;;;;;;5085978;28;20136;-85
2021/11/15 08:48:57;;;;;;;46.13;16.63;;;;;;;;;;5093162;28;20047;-85
2021/11/15 08:51:24;;;;;;;51.13;18.80;;;;;;;;;;5094717;28;20100;-85
2021/11/15 08:53:53;;;;;;;44.78;16.83;;;;;;;;;;5090301;28;20132;-86
2021/11/15 08:59:02;;;;;;;41.20;15.43;;;;;;;;;;5088654;28;20083;-84
2021/11/15 09:01:29;;;;;;;43.78;16.80;;;;;;;;;;5090218;28;20124;-83
2021/11/15 09:04:01;;;;;;;49.53;17.38;;;;;;;;;;5091535;28;20055;-83
2021/11/15 09:06:30;;;;;;;51.72;19.48;;;;;;;;;;5086310;28;20055;-83
2021/11/15 09:09:02;;;;;;;40.15;15.75;;;;;;;;;;5086046;28;20143;-83
2021/11/15 09:11:29;;;;;;;44.38;16.08;;;;;;;;;;5083142;28;20058;-83
2021/11/15 09:13:57;;;;;;;46.40;18.45;;;;;;;;;;5087031;28;20044;-82
2021/11/15 09:16:24;;;;;;;41.08;15.43;;;;;;;;;;5084912;28;20049;-83
2021/11/15 09:18:52;;;;;;;45.05;17.17;;;;;;;;;;5083281;28;20055;-83
2021/11/15 09:21:19;;;;;;;43.10;17.52;;;;;;;;;;5084423;28;20112;-83
2021/11/15 09:23:48;;;;;;;40.53;15.15;;;;;;;;;;5083933;28;20051;-83
2021/11/15 09:26:18;;;;;;;43.40;16.08;;;;;;;;;;5084673;28;20230;-83
2021/11/15 09:28:46;;;;;;;49.53;17.95;;;;;;;;;;5086093;28;20123;-82
2021/11/15 09:31:14;;;;;;;42.10;15.68;;;;;;;;;;5086240;28;20148;-82
2021/11/15 09:33:52;;;;;;;43.60;15.95;;;;;;;;;;5087602;28;20053;-83
2021/11/15 09:36:22;;;;;;;51.00;20.00;;;;;;;;;;5094055;28;20052;-83
2021/11/15 09:38:50;;;;;;;50.47;19.05;;;;;;;;;;5101551;22;20044;-61
2021/11/15 09:41:18;;;;;;;48.63;17.50;;;;;;;;;;5073997;28;20087;-61
2021/11/15 09:43:46;;;;;;;46.05;16.67;;;;;;;;;;5074494;28;20063;-61
2021/11/15 09:46:14;;;;;;;44.75;16.67;;;;;;;;;;5074319;28;20414;-63
2021/11/15 09:48:43;;;;;;;48.13;18.38;;;;;;;;;;5074486;28;20062;-59
2021/11/15 09:51:11;;;;;;;40.38;16.02;;;;;;;;;;5074306;28;20046;-61
2021/11/15 09:53:39;;;;;;;40.78;14.93;;;;;;;;;;5074423;28;20048;-61
2021/11/15 09:56:08;;;;;;;33.97;12.90;;;;;;;;;;5073784;28;20462;-61
2021/11/15 09:58:38;;;;;;;35.88;13.85;;;;;;;;;;5074257;28;20084;-62
2021/11/15 10:01:05;;;;;;;35.67;14.15;;;;;;;;;;5074132;28;20135;-61
2021/11/15 10:03:33;;;;;;;40.72;15.45;;;;;;;;;;5074160;28;20049;-61
2021/11/15 10:06:00;;;;;;;36.83;14.88;;;;;;;;;;5073778;28;20499;-61
2021/11/15 10:08:27;;;;;;;40.25;17.23;;;;;;;;;;5073916;28;20055;-61
2021/11/15 10:10:57;;;;;;;37.47;15.48;;;;;;;;;;5074274;28;20051;-62
2021/11/15 10:13:26;;;;;;;42.55;15.73;;;;;;;;;;5073823;28;20110;-62
2021/11/15 10:16:03;;;;;;;38.88;13.90;;;;;;;;;;5073979;28;20500;-62
2021/11/15 10:18:34;;;;;;;44.22;16.63;;;;;;;;;;5073815;28;20051;-61
2021/11/15 10:21:01;;;;;;;;;;;;;;;;;;5074331;28;20220;-62
2021/11/15 10:23:31;;;;;;;44.95;16.38;;;;;;;;;;5074001;28;20015;-62
2021/11/15 10:26:01;;;;;;;39.35;15.02;;;;;;;;;;5073364;28;20053;-61
2021/11/15 10:28:30;;;;;;;45.45;17.05;;;;;;;;;;5073500;28;20087;-60
2021/11/15 10:30:58;;;;;;;45.78;15.90;;;;;;;;;;5073880;28;20125;-61
2021/11/15 10:33:37;;;;;;;42.92;16.20;;;;;;;;;;5073928;28;20052;-61
2021/11/15 10:36:05;;;;;;;43.75;17.63;;;;;;;;;;5073498;28;20429;-61
2021/11/15 10:38:44;;;;;;;40.45;15.77;;;;;;;;;;5073532;28;20091;-60
2021/11/15 10:41:13;;;;;;;37.47;15.13;;;;;;;;;;5073504;28;20478;-62
2021/11/15 10:43:41;;;;;;;40.55;16.38;;;;;;;;;;5073562;28;20489;-61
2021/11/15 10:46:10;;;;;;;48.08;20.40;;;;;;;;;;5073173;28;20429;-62
2021/11/15 10:48:47;;;;;;;54.85;19.70;;;;;;;;;;5073766;28;20052;-61
2021/11/15 10:51:16;;;;;;;45.95;17.02;;;;;;;;;;5072919;28;20059;-60
2021/11/15 10:53:55;;;;;;;52.85;17.52;;;;;;;;;;5073261;28;20500;-61
2021/11/15 10:56:30;;;;;;;49.42;18.73;;;;;;;;;;5072789;28;20065;-61
2021/11/15 10:58:56;;;;;;;43.88;17.05;;;;;;;;;;5073000;28;20048;-60
2021/11/15 11:01:34;;;;;;;41.58;15.85;;;;;;;;;;5072916;28;20059;-61
2021/11/15 11:04:09;;;;;;;44.90;15.95;;;;;;;;;;5073100;28;20057;-62
2021/11/15 11:06:55;;;;;;;45.90;17.02;;;;;;;;;;5072706;28;20045;-60
2021/11/15 11:09:35;;;;;;;40.97;17.77;;;;;;;;;;5072952;28;20067;-61
2021/11/15 11:12:12;;;;;;;40.25;14.30;;;;;;;;;;5072958;28;20055;-60
2021/11/15 11:14:40;;;;;;;44.53;16.25;;;;;;;;;;5072875;28;20570;-60
2021/11/15 11:17:09;;;;;;;42.85;17.00;;;;;;;;;;5072994;28;20052;-61
2021/11/15 11:20:03;;;;;;;46.97;16.02;;;;;;;;;;5073459;28;20056;-60
2021/11/15 11:23:02;;;;;;;52.42;18.48;;;;;;;;;;5072591;28;20056;-61
2021/11/15 11:25:31;;;;;;;50.10;17.63;;;;;;;;;;5072636;28;20511;-62
2021/11/15 11:27:58;;;;;;;49.20;18.02;;;;;;;;;;5072774;28;20055;-63
2021/11/15 11:30:25;;;;;;;41.33;15.98;;;;;;;;;;5072799;28;20045;-62
2021/11/15 11:32:54;;;;;;;46.33;18.48;;;;;;;;;;5072334;28;20060;-62
2021/11/15 11:35:23;;;;;;;49.95;18.90;;;;;;;;;;5072408;28;20106;-61
2021/11/15 11:37:50;;;;;;;49.50;19.42;;;;;;;;;;5072736;28;20048;-62
2021/11/15 11:40:17;;;;;;;52.15;20.90;;;;;;;;;;5072690;28;20062;-60
2021/11/15 11:42:44;;;;;;;46.42;18.02;;;;;;;;;;5072285;28;20477;-60
2021/11/15 11:45:12;;;;;;;49.53;18.05;;;;;;;;;;5072395;28;20070;-61
2021/11/15 11:47:40;;;;;;;48.40;18.48;;;;;;;;;;5072614;28;20059;-61
2021/11/15 11:50:11;;;;;;;58.42;19.88;;;;;;;;;;5072298;28;20143;-62
2021/11/15 11:52:40;;;;;;;54.42;18.45;;;;;;;;;;5072152;28;20166;-62
2021/11/15 11:55:19;;;;;;;62.25;20.13;;;;;;;;;;5072118;28;20052;-62
2021/11/15 11:57:46;;;;;;;58.13;22.00;;;;;;;;;;5072304;28;20056;-61
2021/11/15 12:00:14;;;;;;;57.22;20.08;;;;;;;;;;5072259;28;20151;-60
2021/11/15 12:02:44;;;;;;;56.20;19.83;;;;;;;;;;5072182;28;20059;-60
2021/11/15 12:05:18;;;;;;;47.25;17.65;;;;;;;;;;5071790;28;20135;-61
2021/11/15 12:07:49;;;;;;;41.47;14.82;;;;;;;;;;5072209;28;20416;-62
2021/11/15 12:10:33;;;;;;;49.33;18.27;;;;;;;;;;5072177;28;20421;-62
2021/11/15 12:13:02;;;;;;;51.55;18.55;;;;;;;;;;5072188;28;20083;-60
2021/11/15 12:15:32;;;;;;;45.45;18.48;;;;;;;;;;5071582;28;20056;-63
2021/11/15 12:18:07;;;;;;;49.08;17.00;;;;;;;;;;5072461;28;20086;-61
2021/11/15 12:20:55;;;;;;;46.13;17.65;;;;;;;;;;5072518;28;20485;-64
2021/11/15 12:23:23;;;;;;;56.22;20.65;;;;;;;;;;5072232;28;20398;-62
2021/11/15 12:26:02;;;;;;;53.97;20.08;;;;;;;;;;5071893;28;20406;-62
2021/11/15 12:28:31;;;;;;;47.45;17.98;;;;;;;;;;5072184;28;20410;-62
2021/11/15 12:30:58;;;;;;;49.28;19.13;;;;;;;;;;5071850;28;20041;-62
2021/11/15 12:33:30;;;;;;;55.15;20.88;;;;;;;;;;5071967;28;20045;-64
2021/11/15 12:36:07;;;;;;;48.47;21.17;;;;;;;;;;5072025;28;20116;-62
2021/11/15 12:38:41;;;;;;;56.70;20.10;;;;;;;;;;5072505;28;20509;-63
2021/11/15 12:41:36;;;;;;;47.92;18.75;;;;;;;;;;5071828;28;20102;-61
2021/11/15 12:44:43;;;;;;;46.63;18.92;;;;;;;;;;5072043;28;20051;-62
2021/11/15 12:47:16;;;;;;;56.72;20.95;;;;;;;;;;5067226;28;20072;-63
2021/11/15 12:49:45;;;;;;;41.88;16.33;;;;;;;;;;5072124;28;20489;-62
2021/11/15 12:52:23;;;;;;;49.00;19.38;;;;;;;;;;5072355;28;20106;-65
2021/11/15 12:54:52;;;;;;;47.08;16.48;;;;;;;;;;5071679;28;20059;-62
2021/11/15 12:57:35;;;;;;;42.72;17.25;;;;;;;;;;5071858;28;20143;-61
2021/11/15 13:00:06;;;;;;;49.60;18.35;;;;;;;;;;5072330;28;20402;-62
2021/11/15 13:02:34;;;;;;;54.13;19.48;;;;;;;;;;5071961;28;20139;-62
2021/11/15 13:05:01;;;;;;;50.42;22.40;;;;;;;;;;5071353;28;20053;-65
2021/11/15 13:07:30;;;;;;;52.30;19.75;;;;;;;;;;5071805;28;20048;-63
2021/11/15 13:09:58;;;;;;;71.05;30.85;;;;;;;;;;5071692;28;20063;-62
2021/11/15 13:12:27;;;;;;;201.50;84.05;;;;;;;;;;5072190;28;20475;-61
2021/11/15 13:14:55;;;;;;;50.00;18.25;;;;;;;;;;5072042;28;20501;-62
2021/11/15 13:17:22;;;;;;;50.05;18.55;;;;;;;;;;5075613;28;20052;-63
2021/11/15 13:19:51;;;;;;;44.22;17.08;;;;;;;;;;5075318;28;20071;-65
2021/11/15 13:22:20;;;;;;;43.65;17.65;;;;;;;;;;5075267;28;20095;-63
2021/11/15 13:24:50;;;;;;;44.95;18.05;;;;;;;;;;5075037;28;20056;-61
2021/11/15 13:27:19;;;;;;;82.20;37.17;;;;;;;;;;5075222;28;20059;-63
2021/11/15 13:29:48;;;;;;;42.35;16.95;;;;;;;;;;5075496;28;20803;-61
2021/11/15 13:32:16;;;;;;;44.00;17.88;;;;;;;;;;5075388;28;20052;-62
2021/11/15 13:34:43;;;;;;;54.13;18.83;;;;;;;;;;5074837;28;20044;-62
2021/11/15 13:37:11;;;;;;;50.42;19.92;;;;;;;;;;5075292;28;20048;-62
2021/11/15 13:39:40;;;;;;;49.97;17.85;;;;;;;;;;5075126;28;20474;-63
2021/11/15 13:42:09;;;;;;;49.13;17.60;;;;;;;;;;5074697;28;20056;-63
2021/11/15 13:44:36;;;;;;;53.95;19.13;;;;;;;;;;5074655;28;20394;-62
2021/11/15 13:47:03;;;;;;;57.35;22.33;;;;;;;;;;5074893;28;20511;-63
2021/11/15 13:49:32;;;;;;;50.38;19.15;;;;;;;;;;5074584;28;20056;-62
2021/11/15 13:51:59;;;;;;;46.78;19.05;;;;;;;;;;5074818;28;20053;-62
2021/11/15 13:54:26;;;;;;;42.35;17.52;;;;;;;;;;5074622;28;20489;-62
2021/11/15 13:56:53;;;;;;;53.30;20.50;;;;;;;;;;5074623;28;20053;-63
2021/11/15 13:59:22;;;;;;;53.15;20.45;;;;;;;;;;5074670;28;20052;-63
2021/11/15 14:01:52;;;;;;;55.42;21.17;;;;;;;;;;5074923;28;20048;-62
2021/11/15 14:04:19;;;;;;;55.67;19.88;;;;;;;;;;5074586;28;20044;-62
2021/11/15 14:06:46;;;;;;;58.72;20.80;;;;;;;;;;5074592;28;20063;-62
2021/11/15 14:09:13;;;;;;;58.70;21.63;;;;;;;;;;5074702;28;20599;-62
2021/11/15 14:11:40;;;;;;;57.83;20.45;;;;;;;;;;5074426;28;20060;-61
2021/11/15 14:14:07;;;;;;;60.85;21.38;;;;;;;;;;5074604;28;20051;-63
2021/11/15 14:16:35;;;;;;;61.30;22.35;;;;;;;;;;5074179;28;20076;-62
2021/11/15 14:19:02;;;;;;;61.70;21.75;;;;;;;;;;5074240;28;20049;-63
2021/11/15 14:21:30;;;;;;;58.90;23.50;;;;;;;;;;5074000;28;20440;-63
2021/11/15 14:23:57;;;;;;;57.45;20.83;;;;;;;;;;5074532;28;20049;-63
2021/11/15 14:26:24;;;;;;;60.88;21.15;;;;;;;;;;5073064;28;20048;-63
2021/11/15 14:28:51;;;;;;;70.68;21.73;;;;;;;;;;5073727;28;20048;-63
2021/11/15 14:31:18;;;;;;;59.05;19.73;;;;;;;;;;5073799;28;20048;-63
2021/11/15 14:33:46;;;;;;;59.95;20.88;;;;;;;;;;5073726;28;20048;-62